sensor_id;sensor_type;location;lat;lon;timestamp;P1;durP1;ratioP1;P2;durP2;ratioP2
32838;SDS011;19182;41.820;12.808;2022-12-17T00:00:23;27.25;;;10.00;;
32838;SDS011;19182;41.820;12.808;2022-12-17T00:03:08;30.90;;;10.82;;
32838;SDS011;19182;41.820;12.808;2022-12-17T00:05:53;61.08;;;12.25;;
32838;SDS011;19182;41.820;12.808;2022-12-17T00:08:37;67.22;;;13.13;;
32838;SDS011;19182;41.820;12.808;2022-12-17T00:11:21;47.70;;;11.38;;
32838;SDS011;19182;41.820;12.808;2022-12-17T00:14:06;35.92;;;11.05;;
32838;SDS011;19182;41.820;12.808;2022-12-17T00:16:50;23.27;;;12.02;;
32838;SDS011;19182;41.820;12.808;2022-12-17T00:19:35;34.92;;;15.05;;
32838;SDS011;19182;41.820;12.808;2022-12-17T00:25:41;35.92;;;15.93;;
32838;SDS011;19182;41.820;12.808;2022-12-17T00:28:25;34.88;;;15.88;;
32838;SDS011;19182;41.820;12.808;2022-12-17T00:31:09;39.08;;;17.17;;
32838;SDS011;19182;41.820;12.808;2022-12-17T00:33:53;62.03;;;18.10;;
32838;SDS011;19182;41.820;12.808;2022-12-17T00:36:37;55.67;;;19.10;;
32838;SDS011;19182;41.820;12.808;2022-12-17T00:39:21;65.65;;;20.70;;
32838;SDS011;19182;41.820;12.808;2022-12-17T00:45:28;64.25;;;19.42;;
32838;SDS011;19182;41.820;12.808;2022-12-17T00:48:13;60.35;;;20.38;;
32838;SDS011;19182;41.820;12.808;2022-12-17T00:50:58;67.65;;;20.95;;
32838;SDS011;19182;41.820;12.808;2022-12-17T00:53:42;59.33;;;19.92;;
32838;SDS011;19182;41.820;12.808;2022-12-17T00:56:26;62.78;;;20.77;;
32838;SDS011;19182;41.820;12.808;2022-12-17T00:59:11;71.65;;;22.27;;
32838;SDS011;19182;41.820;12.808;2022-12-17T01:01:56;73.10;;;22.63;;
32838;SDS011;19182;41.820;12.808;2022-12-17T01:04:40;62.47;;;23.92;;
32838;SDS011;19182;41.820;12.808;2022-12-17T01:07:24;68.32;;;24.20;;
32838;SDS011;19182;41.820;12.808;2022-12-17T01:10:09;69.95;;;25.30;;
32838;SDS011;19182;41.820;12.808;2022-12-17T01:12:54;116.35;;;26.10;;
32838;SDS011;19182;41.820;12.808;2022-12-17T01:15:39;182.25;;;29.33;;
32838;SDS011;19182;41.820;12.808;2022-12-17T01:18:24;146.02;;;26.48;;
32838;SDS011;19182;41.820;12.808;2022-12-17T01:21:10;135.68;;;24.05;;
32838;SDS011;19182;41.820;12.808;2022-12-17T01:23:54;86.97;;;23.60;;
32838;SDS011;19182;41.820;12.808;2022-12-17T01:26:38;113.93;;;24.55;;
32838;SDS011;19182;41.820;12.808;2022-12-17T01:29:23;126.18;;;25.25;;
32838;SDS011;19182;41.820;12.808;2022-12-17T01:32:07;85.40;;;22.85;;
32838;SDS011;19182;41.820;12.808;2022-12-17T01:34:52;82.75;;;22.40;;
32838;SDS011;19182;41.820;12.808;2022-12-17T01:37:41;84.70;;;23.88;;
32838;SDS011;19182;41.820;12.808;2022-12-17T01:40:25;74.93;;;24.80;;
32838;SDS011;19182;41.820;12.808;2022-12-17T01:43:10;112.32;;;22.88;;
32838;SDS011;19182;41.820;12.808;2022-12-17T01:45:55;132.93;;;25.98;;
32838;SDS011;19182;41.820;12.808;2022-12-17T01:48:40;119.53;;;24.42;;
32838;SDS011;19182;41.820;12.808;2022-12-17T01:51:27;207.43;;;26.38;;
32838;SDS011;19182;41.820;12.808;2022-12-17T01:54:13;162.25;;;22.50;;
32838;SDS011;19182;41.820;12.808;2022-12-17T01:56:58;191.63;;;23.95;;
32838;SDS011;19182;41.820;12.808;2022-12-17T02:00:02;169.13;;;21.42;;
32838;SDS011;19182;41.820;12.808;2022-12-17T02:02:48;170.05;;;26.55;;
32838;SDS011;19182;41.820;12.808;2022-12-17T02:05:37;184.52;;;23.48;;
32838;SDS011;19182;41.820;12.808;2022-12-17T02:12:01;185.65;;;22.05;;
32838;SDS011;19182;41.820;12.808;2022-12-17T02:14:42;172.35;;;20.58;;
32838;SDS011;19182;41.820;12.808;2022-12-17T02:17:35;182.98;;;21.85;;
32838;SDS011;19182;41.820;12.808;2022-12-17T02:20:41;222.82;;;22.60;;
32838;SDS011;19182;41.820;12.808;2022-12-17T02:23:45;190.18;;;22.48;;
32838;SDS011;19182;41.820;12.808;2022-12-17T02:29:23;181.52;;;23.50;;
32838;SDS011;19182;41.820;12.808;2022-12-17T02:35:23;138.32;;;21.05;;
32838;SDS011;19182;41.820;12.808;2022-12-17T02:38:16;117.95;;;17.70;;
32838;SDS011;19182;41.820;12.808;2022-12-17T02:41:01;167.52;;;20.08;;
32838;SDS011;19182;41.820;12.808;2022-12-17T02:43:49;186.18;;;23.30;;
32838;SDS011;19182;41.820;12.808;2022-12-17T02:46:35;155.23;;;19.15;;
32838;SDS011;19182;41.820;12.808;2022-12-17T02:49:21;111.20;;;17.63;;
32838;SDS011;19182;41.820;12.808;2022-12-17T02:52:05;104.95;;;18.02;;
32838;SDS011;19182;41.820;12.808;2022-12-17T02:54:50;74.00;;;15.57;;
32838;SDS011;19182;41.820;12.808;2022-12-17T02:57:35;152.52;;;18.92;;
32838;SDS011;19182;41.820;12.808;2022-12-17T03:00:20;129.98;;;16.88;;
32838;SDS011;19182;41.820;12.808;2022-12-17T03:03:06;99.20;;;17.08;;
32838;SDS011;19182;41.820;12.808;2022-12-17T03:05:50;103.97;;;18.52;;
32838;SDS011;19182;41.820;12.808;2022-12-17T03:08:34;117.22;;;17.00;;
32838;SDS011;19182;41.820;12.808;2022-12-17T03:11:20;62.63;;;15.60;;
32838;SDS011;19182;41.820;12.808;2022-12-17T03:14:04;80.47;;;16.27;;
32838;SDS011;19182;41.820;12.808;2022-12-17T03:16:56;88.60;;;18.33;;
32838;SDS011;19182;41.820;12.808;2022-12-17T03:19:41;101.30;;;16.77;;
32838;SDS011;19182;41.820;12.808;2022-12-17T03:22:26;55.38;;;16.23;;
32838;SDS011;19182;41.820;12.808;2022-12-17T03:25:10;45.58;;;14.85;;
32838;SDS011;19182;41.820;12.808;2022-12-17T03:27:54;66.10;;;16.55;;
32838;SDS011;19182;41.820;12.808;2022-12-17T03:30:38;47.00;;;15.05;;
32838;SDS011;19182;41.820;12.808;2022-12-17T03:33:22;43.97;;;15.82;;
32838;SDS011;19182;41.820;12.808;2022-12-17T03:36:06;73.82;;;16.35;;
32838;SDS011;19182;41.820;12.808;2022-12-17T03:38:50;61.33;;;15.43;;
32838;SDS011;19182;41.820;12.808;2022-12-17T03:41:35;65.05;;;17.42;;
32838;SDS011;19182;41.820;12.808;2022-12-17T03:44:18;81.78;;;16.40;;
32838;SDS011;19182;41.820;12.808;2022-12-17T03:47:03;55.15;;;15.07;;
32838;SDS011;19182;41.820;12.808;2022-12-17T03:49:48;51.58;;;14.38;;
32838;SDS011;19182;41.820;12.808;2022-12-17T03:52:32;50.33;;;15.27;;
32838;SDS011;19182;41.820;12.808;2022-12-17T03:55:16;57.15;;;15.50;;
32838;SDS011;19182;41.820;12.808;2022-12-17T03:58:01;59.33;;;16.38;;
32838;SDS011;19182;41.820;12.808;2022-12-17T04:00:44;64.10;;;16.27;;
32838;SDS011;19182;41.820;12.808;2022-12-17T04:03:28;49.70;;;15.00;;
32838;SDS011;19182;41.820;12.808;2022-12-17T04:06:14;76.20;;;18.55;;
32838;SDS011;19182;41.820;12.808;2022-12-17T04:08:58;57.92;;;14.40;;
32838;SDS011;19182;41.820;12.808;2022-12-17T04:11:42;51.50;;;14.65;;
32838;SDS011;19182;41.820;12.808;2022-12-17T04:14:26;50.97;;;15.10;;
32838;SDS011;19182;41.820;12.808;2022-12-17T04:17:10;40.00;;;14.70;;
32838;SDS011;19182;41.820;12.808;2022-12-17T04:19:54;46.95;;;15.27;;
32838;SDS011;19182;41.820;12.808;2022-12-17T04:22:38;40.22;;;13.75;;
32838;SDS011;19182;41.820;12.808;2022-12-17T04:25:22;43.10;;;14.10;;
32838;SDS011;19182;41.820;12.808;2022-12-17T04:28:06;40.72;;;14.73;;
32838;SDS011;19182;41.820;12.808;2022-12-17T04:30:51;39.65;;;14.65;;
32838;SDS011;19182;41.820;12.808;2022-12-17T04:33:35;45.50;;;13.85;;
32838;SDS011;19182;41.820;12.808;2022-12-17T04:36:20;53.03;;;16.83;;
32838;SDS011;19182;41.820;12.808;2022-12-17T04:39:05;61.25;;;15.40;;
32838;SDS011;19182;41.820;12.808;2022-12-17T04:41:50;53.05;;;15.35;;
32838;SDS011;19182;41.820;12.808;2022-12-17T04:44:34;48.47;;;15.30;;
32838;SDS011;19182;41.820;12.808;2022-12-17T04:47:18;55.80;;;15.32;;
32838;SDS011;19182;41.820;12.808;2022-12-17T04:50:02;45.70;;;15.00;;
32838;SDS011;19182;41.820;12.808;2022-12-17T04:52:47;41.20;;;15.50;;
32838;SDS011;19182;41.820;12.808;2022-12-17T04:55:30;53.38;;;16.45;;
32838;SDS011;19182;41.820;12.808;2022-12-17T04:58:15;45.90;;;15.30;;
32838;SDS011;19182;41.820;12.808;2022-12-17T05:00:59;56.38;;;16.00;;
32838;SDS011;19182;41.820;12.808;2022-12-17T05:03:44;55.72;;;15.20;;
32838;SDS011;19182;41.820;12.808;2022-12-17T05:06:28;53.67;;;14.70;;
32838;SDS011;19182;41.820;12.808;2022-12-17T05:09:13;49.53;;;14.23;;
32838;SDS011;19182;41.820;12.808;2022-12-17T05:11:57;62.65;;;15.40;;
32838;SDS011;19182;41.820;12.808;2022-12-17T05:14:42;50.05;;;14.45;;
32838;SDS011;19182;41.820;12.808;2022-12-17T05:17:27;61.90;;;15.40;;
32838;SDS011;19182;41.820;12.808;2022-12-17T05:20:12;111.38;;;16.17;;
32838;SDS011;19182;41.820;12.808;2022-12-17T05:23:02;68.20;;;16.20;;
32838;SDS011;19182;41.820;12.808;2022-12-17T05:25:47;51.67;;;14.68;;
32838;SDS011;19182;41.820;12.808;2022-12-17T05:28:42;51.45;;;15.98;;
32838;SDS011;19182;41.820;12.808;2022-12-17T05:31:26;32.55;;;13.93;;
32838;SDS011;19182;41.820;12.808;2022-12-17T05:34:10;59.90;;;15.07;;
32838;SDS011;19182;41.820;12.808;2022-12-17T05:37:17;52.47;;;14.30;;
32838;SDS011;19182;41.820;12.808;2022-12-17T05:40:02;58.40;;;13.10;;
32838;SDS011;19182;41.820;12.808;2022-12-17T05:46:00;47.78;;;13.68;;
32838;SDS011;19182;41.820;12.808;2022-12-17T05:48:45;45.80;;;13.32;;
32838;SDS011;19182;41.820;12.808;2022-12-17T05:51:29;39.83;;;12.63;;
32838;SDS011;19182;41.820;12.808;2022-12-17T05:54:14;70.25;;;14.63;;
32838;SDS011;19182;41.820;12.808;2022-12-17T05:56:58;39.15;;;13.68;;
32838;SDS011;19182;41.820;12.808;2022-12-17T05:59:43;42.65;;;12.55;;
32838;SDS011;19182;41.820;12.808;2022-12-17T06:02:27;33.35;;;14.48;;
32838;SDS011;19182;41.820;12.808;2022-12-17T06:05:12;36.63;;;16.65;;
32838;SDS011;19182;41.820;12.808;2022-12-17T06:08:02;66.18;;;17.33;;
32838;SDS011;19182;41.820;12.808;2022-12-17T06:10:51;49.42;;;13.77;;
32838;SDS011;19182;41.820;12.808;2022-12-17T06:13:35;44.63;;;15.25;;
32838;SDS011;19182;41.820;12.808;2022-12-17T06:16:20;50.33;;;15.15;;
32838;SDS011;19182;41.820;12.808;2022-12-17T06:19:08;43.77;;;15.00;;
32838;SDS011;19182;41.820;12.808;2022-12-17T06:21:53;49.92;;;14.48;;
32838;SDS011;19182;41.820;12.808;2022-12-17T06:24:38;43.40;;;15.02;;
32838;SDS011;19182;41.820;12.808;2022-12-17T06:27:23;44.92;;;14.10;;
32838;SDS011;19182;41.820;12.808;2022-12-17T06:30:07;42.05;;;14.57;;
32838;SDS011;19182;41.820;12.808;2022-12-17T06:33:01;38.47;;;14.00;;
32838;SDS011;19182;41.820;12.808;2022-12-17T06:35:50;34.58;;;13.95;;
32838;SDS011;19182;41.820;12.808;2022-12-17T06:38:38;40.13;;;14.43;;
32838;SDS011;19182;41.820;12.808;2022-12-17T06:41:23;44.72;;;14.27;;
32838;SDS011;19182;41.820;12.808;2022-12-17T06:44:07;43.30;;;15.60;;
32838;SDS011;19182;41.820;12.808;2022-12-17T06:46:51;58.47;;;15.05;;
32838;SDS011;19182;41.820;12.808;2022-12-17T06:49:36;45.47;;;15.70;;
32838;SDS011;19182;41.820;12.808;2022-12-17T06:52:20;38.97;;;13.70;;
32838;SDS011;19182;41.820;12.808;2022-12-17T06:55:05;44.40;;;14.75;;
32838;SDS011;19182;41.820;12.808;2022-12-17T06:57:59;40.45;;;12.02;;
32838;SDS011;19182;41.820;12.808;2022-12-17T07:00:45;61.50;;;12.80;;
32838;SDS011;19182;41.820;12.808;2022-12-17T07:03:29;46.00;;;14.35;;
32838;SDS011;19182;41.820;12.808;2022-12-17T07:06:14;67.47;;;16.00;;
32838;SDS011;19182;41.820;12.808;2022-12-17T07:08:58;54.78;;;12.05;;
32838;SDS011;19182;41.820;12.808;2022-12-17T07:12:14;73.93;;;14.07;;
32838;SDS011;19182;41.820;12.808;2022-12-17T07:15:00;84.35;;;14.00;;
32838;SDS011;19182;41.820;12.808;2022-12-17T07:17:57;111.40;;;15.88;;
32838;SDS011;19182;41.820;12.808;2022-12-17T07:20:45;89.22;;;13.70;;
32838;SDS011;19182;41.820;12.808;2022-12-17T07:23:31;119.25;;;18.52;;
32838;SDS011;19182;41.820;12.808;2022-12-17T07:26:16;89.28;;;14.57;;
32838;SDS011;19182;41.820;12.808;2022-12-17T07:29:01;78.32;;;14.32;;
32838;SDS011;19182;41.820;12.808;2022-12-17T07:31:45;110.75;;;15.38;;
32838;SDS011;19182;41.820;12.808;2022-12-17T07:34:30;111.13;;;15.93;;
32838;SDS011;19182;41.820;12.808;2022-12-17T07:37:14;92.95;;;15.27;;
32838;SDS011;19182;41.820;12.808;2022-12-17T07:39:59;83.35;;;14.80;;
32838;SDS011;19182;41.820;12.808;2022-12-17T07:42:43;104.53;;;13.25;;
32838;SDS011;19182;41.820;12.808;2022-12-17T07:45:28;50.63;;;12.88;;
32838;SDS011;19182;41.820;12.808;2022-12-17T07:48:12;123.80;;;14.82;;
32838;SDS011;19182;41.820;12.808;2022-12-17T07:50:57;81.47;;;15.02;;
32838;SDS011;19182;41.820;12.808;2022-12-17T07:53:42;102.13;;;21.08;;
32838;SDS011;19182;41.820;12.808;2022-12-17T07:56:26;60.92;;;17.15;;
32838;SDS011;19182;41.820;12.808;2022-12-17T07:59:10;63.33;;;17.33;;
32838;SDS011;19182;41.820;12.808;2022-12-17T08:01:54;62.95;;;22.80;;
32838;SDS011;19182;41.820;12.808;2022-12-17T08:04:39;58.05;;;15.43;;
32838;SDS011;19182;41.820;12.808;2022-12-17T08:07:23;36.83;;;13.07;;
32838;SDS011;19182;41.820;12.808;2022-12-17T08:10:08;32.47;;;12.32;;
32838;SDS011;19182;41.820;12.808;2022-12-17T08:13:00;28.92;;;12.32;;
32838;SDS011;19182;41.820;12.808;2022-12-17T08:15:50;29.10;;;13.32;;
32838;SDS011;19182;41.820;12.808;2022-12-17T08:18:35;24.83;;;13.13;;
32838;SDS011;19182;41.820;12.808;2022-12-17T08:21:19;14.43;;;9.40;;
32838;SDS011;19182;41.820;12.808;2022-12-17T08:24:04;17.20;;;9.98;;
32838;SDS011;19182;41.820;12.808;2022-12-17T08:26:48;13.93;;;8.55;;
32838;SDS011;19182;41.820;12.808;2022-12-17T08:29:33;14.73;;;7.70;;
32838;SDS011;19182;41.820;12.808;2022-12-17T08:32:17;10.20;;;7.13;;
32838;SDS011;19182;41.820;12.808;2022-12-17T08:35:01;13.85;;;8.48;;
32838;SDS011;19182;41.820;12.808;2022-12-17T08:37:46;10.48;;;7.32;;
32838;SDS011;19182;41.820;12.808;2022-12-17T08:40:31;14.93;;;7.40;;
32838;SDS011;19182;41.820;12.808;2022-12-17T08:43:16;13.85;;;8.70;;
32838;SDS011;19182;41.820;12.808;2022-12-17T08:46:00;14.38;;;8.48;;
32838;SDS011;19182;41.820;12.808;2022-12-17T08:48:44;18.20;;;8.98;;
32838;SDS011;19182;41.820;12.808;2022-12-17T08:51:29;19.60;;;8.82;;
32838;SDS011;19182;41.820;12.808;2022-12-17T08:54:18;14.00;;;8.02;;
32838;SDS011;19182;41.820;12.808;2022-12-17T08:57:03;19.13;;;8.75;;
32838;SDS011;19182;41.820;12.808;2022-12-17T08:59:47;15.13;;;8.45;;
32838;SDS011;19182;41.820;12.808;2022-12-17T09:02:32;11.15;;;8.20;;
32838;SDS011;19182;41.820;12.808;2022-12-17T09:05:16;14.07;;;8.35;;
32838;SDS011;19182;41.820;12.808;2022-12-17T09:08:01;9.90;;;7.38;;
32838;SDS011;19182;41.820;12.808;2022-12-17T09:10:48;10.95;;;7.20;;
32838;SDS011;19182;41.820;12.808;2022-12-17T09:13:32;12.40;;;7.28;;
32838;SDS011;19182;41.820;12.808;2022-12-17T09:16:17;13.25;;;8.63;;
32838;SDS011;19182;41.820;12.808;2022-12-17T09:19:01;15.20;;;9.23;;
32838;SDS011;19182;41.820;12.808;2022-12-17T09:21:46;15.73;;;9.05;;
32838;SDS011;19182;41.820;12.808;2022-12-17T09:24:30;14.80;;;8.57;;
32838;SDS011;19182;41.820;12.808;2022-12-17T09:27:14;13.82;;;8.90;;
32838;SDS011;19182;41.820;12.808;2022-12-17T09:30:00;16.48;;;9.85;;
32838;SDS011;19182;41.820;12.808;2022-12-17T09:32:44;19.27;;;10.10;;
32838;SDS011;19182;41.820;12.808;2022-12-17T09:35:29;15.07;;;9.60;;
32838;SDS011;19182;41.820;12.808;2022-12-17T09:38:14;19.98;;;11.25;;
32838;SDS011;19182;41.820;12.808;2022-12-17T09:41:05;15.38;;;9.57;;
32838;SDS011;19182;41.820;12.808;2022-12-17T09:50:27;14.68;;;9.20;;
32838;SDS011;19182;41.820;12.808;2022-12-17T09:53:19;15.65;;;9.48;;
32838;SDS011;19182;41.820;12.808;2022-12-17T09:56:08;16.95;;;10.07;;
32838;SDS011;19182;41.820;12.808;2022-12-17T09:58:54;16.40;;;9.38;;
32838;SDS011;19182;41.820;12.808;2022-12-17T10:01:40;17.48;;;10.07;;
32838;SDS011;19182;41.820;12.808;2022-12-17T10:04:31;19.70;;;9.90;;
32838;SDS011;19182;41.820;12.808;2022-12-17T10:07:22;18.88;;;8.80;;
32838;SDS011;19182;41.820;12.808;2022-12-17T10:10:29;17.13;;;10.35;;
32838;SDS011;19182;41.820;12.808;2022-12-17T10:13:18;16.70;;;11.32;;
32838;SDS011;19182;41.820;12.808;2022-12-17T10:16:28;14.18;;;10.15;;
32838;SDS011;19182;41.820;12.808;2022-12-17T10:19:16;17.70;;;10.07;;
32838;SDS011;19182;41.820;12.808;2022-12-17T10:22:07;19.45;;;10.75;;
32838;SDS011;19182;41.820;12.808;2022-12-17T10:24:55;19.73;;;10.83;;
32838;SDS011;19182;41.820;12.808;2022-12-17T10:27:41;17.83;;;10.15;;
32838;SDS011;19182;41.820;12.808;2022-12-17T10:30:26;14.68;;;10.27;;
32838;SDS011;19182;41.820;12.808;2022-12-17T10:33:16;17.63;;;11.93;;
32838;SDS011;19182;41.820;12.808;2022-12-17T10:36:03;22.27;;;11.35;;
32838;SDS011;19182;41.820;12.808;2022-12-17T10:38:54;16.83;;;10.43;;
32838;SDS011;19182;41.820;12.808;2022-12-17T10:41:40;14.57;;;8.52;;
32838;SDS011;19182;41.820;12.808;2022-12-17T10:44:29;10.65;;;6.82;;
32838;SDS011;19182;41.820;12.808;2022-12-17T10:47:19;9.57;;;7.28;;
32838;SDS011;19182;41.820;12.808;2022-12-17T10:50:11;9.60;;;7.22;;
32838;SDS011;19182;41.820;12.808;2022-12-17T10:53:03;8.23;;;6.68;;
32838;SDS011;19182;41.820;12.808;2022-12-17T10:55:58;8.10;;;5.72;;
32838;SDS011;19182;41.820;12.808;2022-12-17T10:58:43;13.50;;;6.50;;
32838;SDS011;19182;41.820;12.808;2022-12-17T11:01:31;12.73;;;8.10;;
32838;SDS011;19182;41.820;12.808;2022-12-17T11:07:26;13.25;;;7.60;;
32838;SDS011;19182;41.820;12.808;2022-12-17T11:10:33;10.38;;;7.35;;
32838;SDS011;19182;41.820;12.808;2022-12-17T11:13:34;11.55;;;6.63;;
